sensor_id;sensor_type;location;lat;lon;timestamp;temperature;humidity
74657;DHT22;63185;45.642;13.764;2023-05-19T00:01:57;17.40;57.10
74657;DHT22;63185;45.642;13.764;2023-05-19T00:04:30;17.40;57.20
74657;DHT22;63185;45.642;13.764;2023-05-19T00:06:58;17.30;57.40
74657;DHT22;63185;45.642;13.764;2023-05-19T00:09:25;17.40;57.50
74657;DHT22;63185;45.642;13.764;2023-05-19T00:11:51;17.40;57.40
74657;DHT22;63185;45.642;13.764;2023-05-19T00:14:17;17.40;57.30
74657;DHT22;63185;45.642;13.764;2023-05-19T00:16:42;17.40;57.30
74657;DHT22;63185;45.642;13.764;2023-05-19T00:19:08;17.50;57.30
74657;DHT22;63185;45.642;13.764;2023-05-19T00:21:35;17.40;57.30
74657;DHT22;63185;45.642;13.764;2023-05-19T00:24:02;17.40;57.30
74657;DHT22;63185;45.642;13.764;2023-05-19T00:26:28;17.40;57.10
74657;DHT22;63185;45.642;13.764;2023-05-19T00:28:54;17.50;57.10
74657;DHT22;63185;45.642;13.764;2023-05-19T00:31:20;17.40;57.20
74657;DHT22;63185;45.642;13.764;2023-05-19T00:33:45;17.50;57.10
74657;DHT22;63185;45.642;13.764;2023-05-19T00:36:12;17.40;57.30
74657;DHT22;63185;45.642;13.764;2023-05-19T00:38:37;17.40;57.30
74657;DHT22;63185;45.642;13.764;2023-05-19T00:41:04;17.50;57.30
74657;DHT22;63185;45.642;13.764;2023-05-19T00:43:30;17.40;57.40
74657;DHT22;63185;45.642;13.764;2023-05-19T00:45:59;17.50;57.10
74657;DHT22;63185;45.642;13.764;2023-05-19T00:48:25;17.50;57.20
74657;DHT22;63185;45.642;13.764;2023-05-19T00:50:52;17.50;57.20
74657;DHT22;63185;45.642;13.764;2023-05-19T00:53:19;17.30;57.70
74657;DHT22;63185;45.642;13.764;2023-05-19T00:55:46;17.40;57.50
74657;DHT22;63185;45.642;13.764;2023-05-19T00:58:13;17.40;57.80
74657;DHT22;63185;45.642;13.764;2023-05-19T01:00:39;17.30;57.80
74657;DHT22;63185;45.642;13.764;2023-05-19T01:03:05;17.30;57.80
74657;DHT22;63185;45.642;13.764;2023-05-19T01:05:41;17.30;58.00
74657;DHT22;63185;45.642;13.764;2023-05-19T01:08:09;17.30;58.10
74657;DHT22;63185;45.642;13.764;2023-05-19T01:10:35;17.20;58.30
74657;DHT22;63185;45.642;13.764;2023-05-19T01:13:02;17.20;58.20
74657;DHT22;63185;45.642;13.764;2023-05-19T01:15:29;17.20;58.10
74657;DHT22;63185;45.642;13.764;2023-05-19T01:18:05;17.30;58.10
74657;DHT22;63185;45.642;13.764;2023-05-19T01:20:43;17.40;57.90
74657;DHT22;63185;45.642;13.764;2023-05-19T01:32:18;17.30;58.10
74657;DHT22;63185;45.642;13.764;2023-05-19T01:34:45;17.20;58.30
74657;DHT22;63185;45.642;13.764;2023-05-19T01:37:14;17.20;58.30
74657;DHT22;63185;45.642;13.764;2023-05-19T01:39:41;17.30;58.20
74657;DHT22;63185;45.642;13.764;2023-05-19T01:42:08;17.20;58.20
74657;DHT22;63185;45.642;13.764;2023-05-19T01:44:35;17.30;58.20
74657;DHT22;63185;45.642;13.764;2023-05-19T01:47:02;17.20;58.20
74657;DHT22;63185;45.642;13.764;2023-05-19T01:49:31;17.20;58.40
74657;DHT22;63185;45.642;13.764;2023-05-19T01:51:56;17.10;58.50
74657;DHT22;63185;45.642;13.764;2023-05-19T01:54:22;17.20;58.40
74657;DHT22;63185;45.642;13.764;2023-05-19T01:56:53;17.10;58.70
74657;DHT22;63185;45.642;13.764;2023-05-19T02:01:58;17.10;59.00
74657;DHT22;63185;45.642;13.764;2023-05-19T02:04:44;17.10;59.00
74657;DHT22;63185;45.642;13.764;2023-05-19T02:07:25;17.10;59.00
74657;DHT22;63185;45.642;13.764;2023-05-19T02:10:00;17.10;59.00
74657;DHT22;63185;45.642;13.764;2023-05-19T02:12:32;17.10;59.10
74657;DHT22;63185;45.642;13.764;2023-05-19T02:15:13;17.10;59.00
74657;DHT22;63185;45.642;13.764;2023-05-19T02:17:44;17.10;59.30
74657;DHT22;63185;45.642;13.764;2023-05-19T02:20:13;17.10;59.20
74657;DHT22;63185;45.642;13.764;2023-05-19T02:22:39;17.10;59.20
74657;DHT22;63185;45.642;13.764;2023-05-19T02:25:06;17.00;59.40
74657;DHT22;63185;45.642;13.764;2023-05-19T02:27:33;17.10;59.30
74657;DHT22;63185;45.642;13.764;2023-05-19T02:29:59;17.00;59.50
74657;DHT22;63185;45.642;13.764;2023-05-19T02:32:24;17.00;60.00
74657;DHT22;63185;45.642;13.764;2023-05-19T02:34:50;16.90;59.80
74657;DHT22;63185;45.642;13.764;2023-05-19T02:37:17;17.00;59.70
74657;DHT22;63185;45.642;13.764;2023-05-19T02:39:43;16.90;59.90
74657;DHT22;63185;45.642;13.764;2023-05-19T02:42:10;16.80;59.80
74657;DHT22;63185;45.642;13.764;2023-05-19T02:44:36;16.90;59.60
74657;DHT22;63185;45.642;13.764;2023-05-19T02:47:02;17.00;59.40
74657;DHT22;63185;45.642;13.764;2023-05-19T02:49:28;16.90;59.50
74657;DHT22;63185;45.642;13.764;2023-05-19T02:52:03;17.00;59.60
74657;DHT22;63185;45.642;13.764;2023-05-19T02:54:29;17.00;59.20
74657;DHT22;63185;45.642;13.764;2023-05-19T02:56:55;17.00;59.10
74657;DHT22;63185;45.642;13.764;2023-05-19T02:59:21;17.00;59.20
74657;DHT22;63185;45.642;13.764;2023-05-19T03:01:48;17.00;59.30
74657;DHT22;63185;45.642;13.764;2023-05-19T03:04:13;17.00;59.30
74657;DHT22;63185;45.642;13.764;2023-05-19T03:06:39;17.00;59.20
74657;DHT22;63185;45.642;13.764;2023-05-19T03:09:06;17.00;59.20
74657;DHT22;63185;45.642;13.764;2023-05-19T03:11:32;17.00;59.30
74657;DHT22;63185;45.642;13.764;2023-05-19T03:13:58;16.90;59.40
74657;DHT22;63185;45.642;13.764;2023-05-19T03:16:23;16.90;59.60
74657;DHT22;63185;45.642;13.764;2023-05-19T03:18:49;16.90;59.90
74657;DHT22;63185;45.642;13.764;2023-05-19T03:21:15;16.90;59.80
74657;DHT22;63185;45.642;13.764;2023-05-19T03:23:41;16.90;59.90
74657;DHT22;63185;45.642;13.764;2023-05-19T03:26:06;16.70;60.10
74657;DHT22;63185;45.642;13.764;2023-05-19T03:28:32;16.80;60.20
74657;DHT22;63185;45.642;13.764;2023-05-19T03:30:58;16.70;60.30
74657;DHT22;63185;45.642;13.764;2023-05-19T03:33:23;16.70;60.40
74657;DHT22;63185;45.642;13.764;2023-05-19T03:35:49;16.70;60.30
74657;DHT22;63185;45.642;13.764;2023-05-19T03:38:15;16.80;60.10
74657;DHT22;63185;45.642;13.764;2023-05-19T03:40:40;16.80;60.00
74657;DHT22;63185;45.642;13.764;2023-05-19T03:43:06;16.90;59.80
74657;DHT22;63185;45.642;13.764;2023-05-19T03:45:32;16.90;59.70
74657;DHT22;63185;45.642;13.764;2023-05-19T03:47:58;16.90;59.70
74657;DHT22;63185;45.642;13.764;2023-05-19T03:50:23;16.90;59.60
74657;DHT22;63185;45.642;13.764;2023-05-19T03:52:49;16.90;59.70
74657;DHT22;63185;45.642;13.764;2023-05-19T03:55:15;16.90;59.70
74657;DHT22;63185;45.642;13.764;2023-05-19T03:57:41;17.00;59.40
74657;DHT22;63185;45.642;13.764;2023-05-19T04:00:09;17.00;59.40
74657;DHT22;63185;45.642;13.764;2023-05-19T04:02:38;17.10;59.00
74657;DHT22;63185;45.642;13.764;2023-05-19T04:05:04;17.10;59.00
74657;DHT22;63185;45.642;13.764;2023-05-19T04:07:31;17.20;58.90
74657;DHT22;63185;45.642;13.764;2023-05-19T04:09:57;17.20;58.70
74657;DHT22;63185;45.642;13.764;2023-05-19T04:12:23;17.20;58.80
74657;DHT22;63185;45.642;13.764;2023-05-19T04:14:49;17.30;58.50
74657;DHT22;63185;45.642;13.764;2023-05-19T04:17:14;17.30;58.50
74657;DHT22;63185;45.642;13.764;2023-05-19T04:19:40;17.40;58.20
74657;DHT22;63185;45.642;13.764;2023-05-19T04:22:06;17.40;58.30
74657;DHT22;63185;45.642;13.764;2023-05-19T04:24:31;17.40;58.20
74657;DHT22;63185;45.642;13.764;2023-05-19T04:26:58;17.50;58.20
74657;DHT22;63185;45.642;13.764;2023-05-19T04:29:29;17.50;58.20
74657;DHT22;63185;45.642;13.764;2023-05-19T04:31:56;17.50;58.30
74657;DHT22;63185;45.642;13.764;2023-05-19T04:34:22;17.60;57.90
74657;DHT22;63185;45.642;13.764;2023-05-19T04:36:48;17.60;57.90
74657;DHT22;63185;45.642;13.764;2023-05-19T04:39:14;17.60;57.20
74657;DHT22;63185;45.642;13.764;2023-05-19T04:41:40;17.60;57.40
74657;DHT22;63185;45.642;13.764;2023-05-19T04:44:06;17.60;57.80
74657;DHT22;63185;45.642;13.764;2023-05-19T04:46:33;17.70;57.60
74657;DHT22;63185;45.642;13.764;2023-05-19T04:48:59;17.60;57.50
74657;DHT22;63185;45.642;13.764;2023-05-19T04:51:26;17.70;57.50
74657;DHT22;63185;45.642;13.764;2023-05-19T04:53:56;17.70;57.30
74657;DHT22;63185;45.642;13.764;2023-05-19T04:56:22;17.60;57.50
74657;DHT22;63185;45.642;13.764;2023-05-19T04:58:48;17.70;57.40
74657;DHT22;63185;45.642;13.764;2023-05-19T05:01:14;17.80;57.10
74657;DHT22;63185;45.642;13.764;2023-05-19T05:03:41;17.80;57.00
74657;DHT22;63185;45.642;13.764;2023-05-19T05:06:07;17.80;56.90
74657;DHT22;63185;45.642;13.764;2023-05-19T05:08:33;17.90;57.00
74657;DHT22;63185;45.642;13.764;2023-05-19T05:10:59;17.90;56.70
74657;DHT22;63185;45.642;13.764;2023-05-19T05:13:25;18.10;56.50
74657;DHT22;63185;45.642;13.764;2023-05-19T05:15:51;18.10;56.30
74657;DHT22;63185;45.642;13.764;2023-05-19T05:18:18;18.20;55.90
74657;DHT22;63185;45.642;13.764;2023-05-19T05:20:45;18.30;55.80
74657;DHT22;63185;45.642;13.764;2023-05-19T05:23:11;18.40;55.70
74657;DHT22;63185;45.642;13.764;2023-05-19T05:25:42;18.40;55.50
74657;DHT22;63185;45.642;13.764;2023-05-19T05:28:08;18.40;55.40
74657;DHT22;63185;45.642;13.764;2023-05-19T05:30:34;18.50;55.20
74657;DHT22;63185;45.642;13.764;2023-05-19T05:33:01;18.60;55.30
74657;DHT22;63185;45.642;13.764;2023-05-19T05:35:27;18.60;54.70
74657;DHT22;63185;45.642;13.764;2023-05-19T05:37:53;18.60;54.70
74657;DHT22;63185;45.642;13.764;2023-05-19T05:40:19;18.60;54.80
74657;DHT22;63185;45.642;13.764;2023-05-19T05:42:45;18.60;55.00
74657;DHT22;63185;45.642;13.764;2023-05-19T05:45:10;18.70;54.70
74657;DHT22;63185;45.642;13.764;2023-05-19T05:47:36;18.80;54.80
74657;DHT22;63185;45.642;13.764;2023-05-19T05:50:05;18.70;55.10
74657;DHT22;63185;45.642;13.764;2023-05-19T05:52:31;18.70;54.80
74657;DHT22;63185;45.642;13.764;2023-05-19T05:54:58;18.80;54.50
74657;DHT22;63185;45.642;13.764;2023-05-19T05:57:24;18.80;54.30
74657;DHT22;63185;45.642;13.764;2023-05-19T05:59:50;18.90;54.50
74657;DHT22;63185;45.642;13.764;2023-05-19T06:02:16;19.00;54.20
74657;DHT22;63185;45.642;13.764;2023-05-19T06:04:42;19.00;54.00
74657;DHT22;63185;45.642;13.764;2023-05-19T06:07:08;18.90;54.50
74657;DHT22;63185;45.642;13.764;2023-05-19T06:09:34;18.80;54.50
74657;DHT22;63185;45.642;13.764;2023-05-19T06:12:00;18.80;54.10
74657;DHT22;63185;45.642;13.764;2023-05-19T06:14:26;18.90;54.20
74657;DHT22;63185;45.642;13.764;2023-05-19T06:16:52;18.90;54.20
74657;DHT22;63185;45.642;13.764;2023-05-19T06:19:18;18.90;54.20
74657;DHT22;63185;45.642;13.764;2023-05-19T06:21:49;19.10;53.60
74657;DHT22;63185;45.642;13.764;2023-05-19T06:24:15;19.20;53.40
74657;DHT22;63185;45.642;13.764;2023-05-19T06:26:41;19.20;53.00
74657;DHT22;63185;45.642;13.764;2023-05-19T06:29:06;19.20;53.30
74657;DHT22;63185;45.642;13.764;2023-05-19T06:31:32;19.00;53.30
74657;DHT22;63185;45.642;13.764;2023-05-19T06:33:58;19.10;53.20
74657;DHT22;63185;45.642;13.764;2023-05-19T06:36:24;19.00;53.30
74657;DHT22;63185;45.642;13.764;2023-05-19T06:38:49;19.10;53.10
74657;DHT22;63185;45.642;13.764;2023-05-19T06:41:16;19.30;52.70
74657;DHT22;63185;45.642;13.764;2023-05-19T06:43:42;19.40;52.60
74657;DHT22;63185;45.642;13.764;2023-05-19T06:46:08;19.50;52.80
74657;DHT22;63185;45.642;13.764;2023-05-19T06:48:33;19.50;52.20
74657;DHT22;63185;45.642;13.764;2023-05-19T06:50:59;19.70;52.00
74657;DHT22;63185;45.642;13.764;2023-05-19T06:53:25;19.80;51.70
74657;DHT22;63185;45.642;13.764;2023-05-19T06:55:51;19.70;51.50
74657;DHT22;63185;45.642;13.764;2023-05-19T06:58:16;19.80;51.50
74657;DHT22;63185;45.642;13.764;2023-05-19T07:00:42;19.80;51.30
74657;DHT22;63185;45.642;13.764;2023-05-19T07:03:08;19.90;50.90
74657;DHT22;63185;45.642;13.764;2023-05-19T07:05:34;19.80;51.40
74657;DHT22;63185;45.642;13.764;2023-05-19T07:08:00;19.90;50.80
74657;DHT22;63185;45.642;13.764;2023-05-19T07:10:26;19.90;51.20
74657;DHT22;63185;45.642;13.764;2023-05-19T07:12:52;19.90;50.90
74657;DHT22;63185;45.642;13.764;2023-05-19T07:15:18;19.90;51.10
74657;DHT22;63185;45.642;13.764;2023-05-19T07:17:43;19.90;51.00
74657;DHT22;63185;45.642;13.764;2023-05-19T07:20:09;20.10;50.60
74657;DHT22;63185;45.642;13.764;2023-05-19T07:22:36;20.10;50.50
74657;DHT22;63185;45.642;13.764;2023-05-19T07:25:03;20.00;50.70
74657;DHT22;63185;45.642;13.764;2023-05-19T07:27:28;20.20;50.30
74657;DHT22;63185;45.642;13.764;2023-05-19T07:29:54;20.40;50.30
74657;DHT22;63185;45.642;13.764;2023-05-19T07:32:20;20.40;50.20
74657;DHT22;63185;45.642;13.764;2023-05-19T07:34:45;20.30;50.50
74657;DHT22;63185;45.642;13.764;2023-05-19T07:37:11;20.10;50.40
74657;DHT22;63185;45.642;13.764;2023-05-19T07:39:37;19.90;50.70
74657;DHT22;63185;45.642;13.764;2023-05-19T07:42:03;19.80;51.50
74657;DHT22;63185;45.642;13.764;2023-05-19T07:44:29;19.90;51.20
74657;DHT22;63185;45.642;13.764;2023-05-19T07:46:56;19.90;51.20
74657;DHT22;63185;45.642;13.764;2023-05-19T07:49:22;19.80;51.40
74657;DHT22;63185;45.642;13.764;2023-05-19T07:51:47;19.90;51.50
74657;DHT22;63185;45.642;13.764;2023-05-19T07:54:13;20.00;51.20
74657;DHT22;63185;45.642;13.764;2023-05-19T07:56:39;20.10;50.80
74657;DHT22;63185;45.642;13.764;2023-05-19T07:59:05;20.20;50.30
74657;DHT22;63185;45.642;13.764;2023-05-19T08:01:32;20.20;50.10
74657;DHT22;63185;45.642;13.764;2023-05-19T08:03:58;20.10;50.60
74657;DHT22;63185;45.642;13.764;2023-05-19T08:06:24;20.10;51.10
74657;DHT22;63185;45.642;13.764;2023-05-19T08:08:50;20.20;50.60
74657;DHT22;63185;45.642;13.764;2023-05-19T08:11:16;20.40;50.30
74657;DHT22;63185;45.642;13.764;2023-05-19T08:13:42;20.50;49.80
74657;DHT22;63185;45.642;13.764;2023-05-19T08:16:08;20.50;49.70
74657;DHT22;63185;45.642;13.764;2023-05-19T08:18:34;20.60;49.20
74657;DHT22;63185;45.642;13.764;2023-05-19T08:20:59;20.50;49.50
74657;DHT22;63185;45.642;13.764;2023-05-19T08:23:25;20.40;49.70
74657;DHT22;63185;45.642;13.764;2023-05-19T08:25:51;20.60;49.40
74657;DHT22;63185;45.642;13.764;2023-05-19T08:28:17;20.60;48.90
74657;DHT22;63185;45.642;13.764;2023-05-19T08:30:42;20.60;49.60
74657;DHT22;63185;45.642;13.764;2023-05-19T08:33:08;20.70;49.50
74657;DHT22;63185;45.642;13.764;2023-05-19T08:35:34;20.80;48.80
74657;DHT22;63185;45.642;13.764;2023-05-19T08:38:00;21.10;48.60
74657;DHT22;63185;45.642;13.764;2023-05-19T08:40:27;21.10;48.40
74657;DHT22;63185;45.642;13.764;2023-05-19T08:42:55;21.10;48.70
74657;DHT22;63185;45.642;13.764;2023-05-19T08:45:21;21.20;48.50
74657;DHT22;63185;45.642;13.764;2023-05-19T08:47:48;21.20;48.50
74657;DHT22;63185;45.642;13.764;2023-05-19T08:50:29;21.10;48.20
74657;DHT22;63185;45.642;13.764;2023-05-19T08:52:57;20.90;48.90
74657;DHT22;63185;45.642;13.764;2023-05-19T08:58:02;21.10;48.50
74657;DHT22;63185;45.642;13.764;2023-05-19T09:00:29;21.20;48.70
74657;DHT22;63185;45.642;13.764;2023-05-19T09:02:55;21.20;47.90
74657;DHT22;63185;45.642;13.764;2023-05-19T09:05:22;21.10;48.80
74657;DHT22;63185;45.642;13.764;2023-05-19T09:07:48;21.20;48.40
74657;DHT22;63185;45.642;13.764;2023-05-19T09:10:14;21.40;48.20
74657;DHT22;63185;45.642;13.764;2023-05-19T09:12:45;21.50;47.50
74657;DHT22;63185;45.642;13.764;2023-05-19T09:15:12;21.60;47.30
74657;DHT22;63185;45.642;13.764;2023-05-19T09:17:40;21.60;47.20
74657;DHT22;63185;45.642;13.764;2023-05-19T09:20:07;21.50;48.10
74657;DHT22;63185;45.642;13.764;2023-05-19T09:22:43;21.50;47.50
74657;DHT22;63185;45.642;13.764;2023-05-19T09:25:24;21.70;47.80
74657;DHT22;63185;45.642;13.764;2023-05-19T09:27:53;21.90;46.50
74657;DHT22;63185;45.642;13.764;2023-05-19T09:30:19;22.10;47.00
74657;DHT22;63185;45.642;13.764;2023-05-19T09:32:46;22.10;45.90
74657;DHT22;63185;45.642;13.764;2023-05-19T09:35:12;22.20;45.00
74657;DHT22;63185;45.642;13.764;2023-05-19T09:37:39;22.10;45.40
74657;DHT22;63185;45.642;13.764;2023-05-19T09:40:09;22.10;45.40
74657;DHT22;63185;45.642;13.764;2023-05-19T09:42:38;22.20;45.30
74657;DHT22;63185;45.642;13.764;2023-05-19T09:45:04;22.60;45.90
74657;DHT22;63185;45.642;13.764;2023-05-19T09:47:38;22.80;44.70
74657;DHT22;63185;45.642;13.764;2023-05-19T09:50:08;22.70;45.10
74657;DHT22;63185;45.642;13.764;2023-05-19T09:52:38;22.80;44.60
74657;DHT22;63185;45.642;13.764;2023-05-19T09:55:08;22.90;45.00
74657;DHT22;63185;45.642;13.764;2023-05-19T09:57:35;23.10;43.70
74657;DHT22;63185;45.642;13.764;2023-05-19T10:00:05;22.60;44.20
74657;DHT22;63185;45.642;13.764;2023-05-19T10:02:45;22.70;44.90
74657;DHT22;63185;45.642;13.764;2023-05-19T10:05:16;22.70;44.60
74657;DHT22;63185;45.642;13.764;2023-05-19T10:07:46;22.80;44.20
74657;DHT22;63185;45.642;13.764;2023-05-19T10:10:16;22.70;44.70
74657;DHT22;63185;45.642;13.764;2023-05-19T10:12:42;22.90;45.00
74657;DHT22;63185;45.642;13.764;2023-05-19T10:15:18;23.10;44.10
74657;DHT22;63185;45.642;13.764;2023-05-19T10:17:45;23.30;43.80
74657;DHT22;63185;45.642;13.764;2023-05-19T10:20:12;23.50;43.30
74657;DHT22;63185;45.642;13.764;2023-05-19T10:22:40;23.60;42.80
74657;DHT22;63185;45.642;13.764;2023-05-19T10:25:07;23.60;42.80
74657;DHT22;63185;45.642;13.764;2023-05-19T10:27:57;23.50;43.50
74657;DHT22;63185;45.642;13.764;2023-05-19T10:30:28;23.30;43.50
74657;DHT22;63185;45.642;13.764;2023-05-19T10:32:55;23.40;43.50
74657;DHT22;63185;45.642;13.764;2023-05-19T10:35:49;23.10;43.70
74657;DHT22;63185;45.642;13.764;2023-05-19T10:38:32;23.20;43.90
74657;DHT22;63185;45.642;13.764;2023-05-19T10:43:53;23.30;43.80
74657;DHT22;63185;45.642;13.764;2023-05-19T10:46:26;23.30;43.40
74657;DHT22;63185;45.642;13.764;2023-05-19T10:48:53;23.10;43.40
74657;DHT22;63185;45.642;13.764;2023-05-19T10:51:20;22.80;43.90
74657;DHT22;63185;45.642;13.764;2023-05-19T10:53:45;22.80;45.30
74657;DHT22;63185;45.642;13.764;2023-05-19T10:56:27;23.00;45.20
74657;DHT22;63185;45.642;13.764;2023-05-19T10:58:54;23.00;44.30
74657;DHT22;63185;45.642;13.764;2023-05-19T11:01:20;23.20;44.10
74657;DHT22;63185;45.642;13.764;2023-05-19T11:06:34;23.40;44.80
74657;DHT22;63185;45.642;13.764;2023-05-19T11:11:49;23.30;43.70
74657;DHT22;63185;45.642;13.764;2023-05-19T11:14:18;23.20;43.90
74657;DHT22;63185;45.642;13.764;2023-05-19T11:16:48;22.90;44.00
74657;DHT22;63185;45.642;13.764;2023-05-19T11:19:31;23.00;44.00
74657;DHT22;63185;45.642;13.764;2023-05-19T11:22:07;23.10;44.60
74657;DHT22;63185;45.642;13.764;2023-05-19T11:27:26;23.10;44.80
74657;DHT22;63185;45.642;13.764;2023-05-19T11:29:54;23.40;44.30
74657;DHT22;63185;45.642;13.764;2023-05-19T11:32:21;23.30;44.10
74657;DHT22;63185;45.642;13.764;2023-05-19T11:34:48;23.10;44.50
74657;DHT22;63185;45.642;13.764;2023-05-19T11:37:16;23.00;45.30
74657;DHT22;63185;45.642;13.764;2023-05-19T11:39:44;23.30;44.60
74657;DHT22;63185;45.642;13.764;2023-05-19T11:42:11;23.40;42.80
74657;DHT22;63185;45.642;13.764;2023-05-19T11:44:36;23.40;43.20
74657;DHT22;63185;45.642;13.764;2023-05-19T11:47:06;23.10;42.90
74657;DHT22;63185;45.642;13.764;2023-05-19T11:49:32;23.10;43.90
74657;DHT22;63185;45.642;13.764;2023-05-19T11:52:02;23.10;43.40
74657;DHT22;63185;45.642;13.764;2023-05-19T11:54:32;23.00;44.00
74657;DHT22;63185;45.642;13.764;2023-05-19T11:57:02;23.30;44.00
74657;DHT22;63185;45.642;13.764;2023-05-19T11:59:35;23.30;42.90
74657;DHT22;63185;45.642;13.764;2023-05-19T12:02:24;23.30;43.00
74657;DHT22;63185;45.642;13.764;2023-05-19T12:04:50;23.30;43.20
74657;DHT22;63185;45.642;13.764;2023-05-19T12:07:18;23.10;43.60
74657;DHT22;63185;45.642;13.764;2023-05-19T12:09:47;23.10;43.60
74657;DHT22;63185;45.642;13.764;2023-05-19T12:12:17;23.20;43.40
74657;DHT22;63185;45.642;13.764;2023-05-19T12:14:45;23.30;43.60
74657;DHT22;63185;45.642;13.764;2023-05-19T12:17:13;23.20;43.80
74657;DHT22;63185;45.642;13.764;2023-05-19T12:19:43;23.10;43.90
74657;DHT22;63185;45.642;13.764;2023-05-19T12:22:09;23.10;43.80
74657;DHT22;63185;45.642;13.764;2023-05-19T12:24:36;23.20;43.80
74657;DHT22;63185;45.642;13.764;2023-05-19T12:27:18;23.20;43.70
74657;DHT22;63185;45.642;13.764;2023-05-19T12:29:55;23.30;44.10
74657;DHT22;63185;45.642;13.764;2023-05-19T12:32:26;23.40;43.70
74657;DHT22;63185;45.642;13.764;2023-05-19T12:34:54;23.60;43.10
74657;DHT22;63185;45.642;13.764;2023-05-19T12:37:20;23.70;43.10
74657;DHT22;63185;45.642;13.764;2023-05-19T12:39:49;23.90;43.30
74657;DHT22;63185;45.642;13.764;2023-05-19T12:42:15;24.00;42.60
74657;DHT22;63185;45.642;13.764;2023-05-19T12:44:47;24.10;42.50
74657;DHT22;63185;45.642;13.764;2023-05-19T12:47:15;24.10;43.10
74657;DHT22;63185;45.642;13.764;2023-05-19T12:52:21;24.20;42.60
74657;DHT22;63185;45.642;13.764;2023-05-19T12:54:48;24.10;42.50
74657;DHT22;63185;45.642;13.764;2023-05-19T12:57:19;24.50;42.40
74657;DHT22;63185;45.642;13.764;2023-05-19T12:59:45;24.40;41.30
74657;DHT22;63185;45.642;13.764;2023-05-19T13:02:11;24.40;42.20
74657;DHT22;63185;45.642;13.764;2023-05-19T13:04:37;24.50;42.10
74657;DHT22;63185;45.642;13.764;2023-05-19T13:07:03;24.50;41.40
74657;DHT22;63185;45.642;13.764;2023-05-19T13:09:29;24.40;41.80
74657;DHT22;63185;45.642;13.764;2023-05-19T13:11:59;24.40;41.80
74657;DHT22;63185;45.642;13.764;2023-05-19T13:14:25;24.60;41.30
74657;DHT22;63185;45.642;13.764;2023-05-19T13:16:50;24.60;41.10
74657;DHT22;63185;45.642;13.764;2023-05-19T13:19:18;24.50;41.00
74657;DHT22;63185;45.642;13.764;2023-05-19T13:21:44;24.30;41.10
74657;DHT22;63185;45.642;13.764;2023-05-19T13:24:12;24.40;41.70
74657;DHT22;63185;45.642;13.764;2023-05-19T13:26:38;24.40;41.60
74657;DHT22;63185;45.642;13.764;2023-05-19T13:29:05;24.10;42.10
74657;DHT22;63185;45.642;13.764;2023-05-19T13:31:30;24.60;41.90
74657;DHT22;63185;45.642;13.764;2023-05-19T13:33:56;24.20;41.80
74657;DHT22;63185;45.642;13.764;2023-05-19T13:36:22;23.90;42.50
74657;DHT22;63185;45.642;13.764;2023-05-19T13:38:47;23.90;43.20
74657;DHT22;63185;45.642;13.764;2023-05-19T13:41:13;24.10;42.60
74657;DHT22;63185;45.642;13.764;2023-05-19T13:43:39;24.30;41.90
74657;DHT22;63185;45.642;13.764;2023-05-19T13:46:04;24.30;41.60
74657;DHT22;63185;45.642;13.764;2023-05-19T13:48:30;24.30;42.00
74657;DHT22;63185;45.642;13.764;2023-05-19T13:50:56;24.30;42.80
74657;DHT22;63185;45.642;13.764;2023-05-19T13:53:22;24.60;41.30
74657;DHT22;63185;45.642;13.764;2023-05-19T13:55:47;24.50;41.20
74657;DHT22;63185;45.642;13.764;2023-05-19T13:58:13;24.60;41.00
74657;DHT22;63185;45.642;13.764;2023-05-19T14:00:41;24.60;41.90
74657;DHT22;63185;45.642;13.764;2023-05-19T14:03:06;24.60;41.10
74657;DHT22;63185;45.642;13.764;2023-05-19T14:05:32;24.80;41.10
74657;DHT22;63185;45.642;13.764;2023-05-19T14:07:58;24.80;40.90
74657;DHT22;63185;45.642;13.764;2023-05-19T14:10:25;24.80;40.40
74657;DHT22;63185;45.642;13.764;2023-05-19T14:12:51;24.50;40.90
74657;DHT22;63185;45.642;13.764;2023-05-19T14:15:21;24.10;41.10
74657;DHT22;63185;45.642;13.764;2023-05-19T14:17:47;23.80;42.70
74657;DHT22;63185;45.642;13.764;2023-05-19T14:20:13;23.90;42.40
74657;DHT22;63185;45.642;13.764;2023-05-19T14:22:39;24.10;42.40
74657;DHT22;63185;45.642;13.764;2023-05-19T14:25:05;24.00;42.00
74657;DHT22;63185;45.642;13.764;2023-05-19T14:27:31;24.00;42.10
74657;DHT22;63185;45.642;13.764;2023-05-19T14:29:56;24.10;42.40
74657;DHT22;63185;45.642;13.764;2023-05-19T14:32:22;24.10;42.20
74657;DHT22;63185;45.642;13.764;2023-05-19T14:34:48;24.00;42.30
74657;DHT22;63185;45.642;13.764;2023-05-19T14:37:17;24.00;43.00
74657;DHT22;63185;45.642;13.764;2023-05-19T14:39:43;24.00;42.60
74657;DHT22;63185;45.642;13.764;2023-05-19T14:42:09;23.90;42.50
74657;DHT22;63185;45.642;13.764;2023-05-19T14:44:35;23.70;43.20
74657;DHT22;63185;45.642;13.764;2023-05-19T14:47:02;23.70;43.20
74657;DHT22;63185;45.642;13.764;2023-05-19T14:49:29;24.00;43.90
74657;DHT22;63185;45.642;13.764;2023-05-19T14:51:54;24.10;42.30
74657;DHT22;63185;45.642;13.764;2023-05-19T14:54:20;24.20;41.60
74657;DHT22;63185;45.642;13.764;2023-05-19T14:56:46;24.10;41.50
74657;DHT22;63185;45.642;13.764;2023-05-19T14:59:12;23.70;42.90
74657;DHT22;63185;45.642;13.764;2023-05-19T15:01:37;23.50;42.90
74657;DHT22;63185;45.642;13.764;2023-05-19T15:04:03;23.80;42.60
74657;DHT22;63185;45.642;13.764;2023-05-19T15:06:29;23.90;42.00
74657;DHT22;63185;45.642;13.764;2023-05-19T15:08:55;24.20;41.90
74657;DHT22;63185;45.642;13.764;2023-05-19T15:11:21;24.50;41.50
74657;DHT22;63185;45.642;13.764;2023-05-19T15:13:46;24.60;41.00
74657;DHT22;63185;45.642;13.764;2023-05-19T15:16:12;25.10;40.50
74657;DHT22;63185;45.642;13.764;2023-05-19T15:18:38;25.30;40.80
74657;DHT22;63185;45.642;13.764;2023-05-19T15:21:04;25.50;39.40
74657;DHT22;63185;45.642;13.764;2023-05-19T15:23:30;25.60;39.20
74657;DHT22;63185;45.642;13.764;2023-05-19T15:25:56;25.70;38.90
74657;DHT22;63185;45.642;13.764;2023-05-19T15:28:21;25.60;39.40
74657;DHT22;63185;45.642;13.764;2023-05-19T15:30:47;25.00;40.00
74657;DHT22;63185;45.642;13.764;2023-05-19T15:33:13;24.50;41.50
74657;DHT22;63185;45.642;13.764;2023-05-19T15:35:39;23.90;42.60
74657;DHT22;63185;45.642;13.764;2023-05-19T15:38:05;23.80;42.80
74657;DHT22;63185;45.642;13.764;2023-05-19T15:40:31;24.20;42.80
74657;DHT22;63185;45.642;13.764;2023-05-19T15:42:57;25.00;40.90
74657;DHT22;63185;45.642;13.764;2023-05-19T15:45:23;25.70;39.10